Time;durP1;ratioP1;P1;durP2;ratioP2;P2;SDS_P1;SDS_P2;PMS_P1;PMS_P2;Temp;Humidity;BMP_temperature;BMP_pressure;BME280_temperature;BME280_humidity;BME280_pressure;Samples;Min_cycle;Max_cycle;Signal;HPM_P1;HPM_P2
2021/10/05 00:01:49;;;;;;;2.60;2.20;;;;;;;12.22;nan;100415.53;5072088;28;20462;-77
2021/10/05 00:04:14;;;;;;;2.60;2.10;;;;;;;12.24;nan;100411.72;5070095;28;20407;-76
2021/10/05 00:06:40;;;;;;;2.67;2.15;;;;;;;12.20;nan;100407.72;5071533;28;20116;-78
2021/10/05 00:09:05;;;;;;;2.92;2.30;;;;;;;12.21;nan;100405.94;5071568;28;20562;-77
2021/10/05 00:11:31;;;;;;;2.95;2.20;;;;;;;12.24;nan;100409.06;5071890;28;20067;-77
2021/10/05 00:13:56;;;;;;;;;;;;;;;12.21;nan;100404.09;5052589;28;20441;-77
2021/10/05 00:16:22;;;;;;;3.13;2.70;;;;;;;12.24;nan;100395.00;5075461;28;19966;-77
2021/10/05 00:18:49;;;;;;;2.60;2.20;;;;;;;12.16;nan;100395.00;5053330;28;20067;-77
2021/10/05 00:21:15;;;;;;;2.42;2.10;;;;;;;12.16;nan;100389.69;5071194;28;20041;-78
2021/10/05 00:23:40;;;;;;;3.20;2.35;;;;;;;12.14;nan;100386.38;5071652;28;20082;-77
2021/10/05 00:26:05;;;;;;;3.08;2.55;;;;;;;12.13;nan;100382.88;5071002;28;20029;-78
2021/10/05 00:28:31;;;;;;;3.88;2.10;;;;;;;12.12;nan;100378.59;5053733;28;20040;-77
2021/10/05 00:30:56;;;;;;;3.50;2.10;;;;;;;12.05;nan;100381.06;5077428;28;20435;-77
2021/10/05 00:33:21;;;;;;;;;;;;;;;12.08;nan;100374.59;5072813;28;20605;-78
2021/10/05 00:35:47;;;;;;;;;;;;;;;12.06;nan;100374.78;5073014;28;20120;-78
2021/10/05 00:38:12;;;;;;;;;;;;;;;11.95;nan;100371.63;5055279;28;19946;-78
2021/10/05 00:40:39;;;;;;;1.70;1.20;;;;;;;11.98;nan;100372.09;5072906;28;19923;-78
2021/10/05 00:43:04;;;;;;;1.88;1.15;;;;;;;12.01;nan;100373.59;5071023;28;20291;-78
2021/10/05 00:45:30;;;;;;;1.58;1.27;;;;;;;11.97;nan;100375.78;5071837;28;20459;-77
2021/10/05 00:47:55;;;;;;;2.15;1.27;;;;;;;11.97;nan;100367.81;5071742;28;20466;-76
2021/10/05 00:50:20;;;;;;;1.25;0.90;;;;;;;11.97;nan;100362.53;5053215;28;20032;-77
2021/10/05 00:52:47;;;;;;;2.35;1.30;;;;;;;11.92;nan;100356.88;5071122;28;20033;-77
2021/10/05 00:55:13;;;;;;;1.80;1.20;;;;;;;11.90;nan;100354.41;5072384;28;20050;-78
2021/10/05 00:57:39;;;;;;;1.27;1.08;;;;;;;11.89;nan;100347.44;5072096;28;20496;-78
2021/10/05 01:00:05;;;;;;;1.77;1.00;;;;;;;11.92;nan;100351.59;5054754;28;20066;-78
2021/10/05 01:02:31;;;;;;;3.20;1.38;;;;;;;12.02;nan;100344.28;5072486;28;20492;-78
2021/10/05 01:04:56;;;;;;;1.70;1.10;;;;;;;11.93;nan;100332.03;5070913;28;20042;-78
2021/10/05 01:07:21;;;;;;;2.53;1.30;;;;;;;12.02;nan;100332.88;5053522;28;20040;-78
2021/10/05 01:09:47;;;;;;;2.13;1.30;;;;;;;11.99;nan;100327.88;5071311;28;20092;-77
2021/10/05 01:12:13;;;;;;;1.67;1.17;;;;;;;11.85;nan;100322.25;5053903;28;20044;-78
2021/10/05 01:14:39;;;;;;;4.35;1.50;;;;;;;11.89;nan;100326.25;5073119;28;20404;-77
2021/10/05 01:17:06;;;;;;;1.80;1.10;;;;;;;11.84;nan;100317.91;5071086;28;20124;-77
2021/10/05 01:19:31;;;;;;;1.60;1.10;;;;;;;11.78;nan;100323.06;5078780;28;20039;-78
2021/10/05 01:21:56;;;;;;;;;;;;;;;11.72;nan;100318.41;5074350;28;20033;-78
2021/10/05 01:24:22;;;;;;;1.73;0.90;;;;;;;11.81;nan;100315.59;5072852;28;19916;-78
2021/10/05 01:26:49;;;;;;;1.83;1.20;;;;;;;11.85;nan;100316.13;5072157;28;20036;-78
2021/10/05 01:29:19;;;;;;;3.28;1.27;;;;;;;11.77;nan;100316.09;5073848;28;20108;-78
2021/10/05 01:31:48;;;;;;;1.73;1.00;;;;;;;11.69;nan;100317.75;5072588;28;20040;-78
2021/10/05 01:34:14;;;;;;;1.92;0.90;;;;;;;11.69;nan;100312.44;5052701;28;20048;-78
2021/10/05 01:36:40;;;;;;;2.35;0.98;;;;;;;11.73;nan;100306.81;5076071;28;20029;-78
2021/10/05 01:39:19;;;;;;;2.22;0.90;;;;;;;11.74;nan;100316.44;5057931;28;20033;-79
2021/10/05 01:41:45;;;;;;;1.65;0.93;;;;;;;11.78;nan;100304.53;5073633;28;20033;-78
2021/10/05 01:44:10;;;;;;;1.95;1.02;;;;;;;11.70;nan;100300.03;5052042;28;20033;-78
2021/10/05 01:46:35;;;;;;;1.58;1.00;;;;;;;11.74;nan;100293.41;5071282;28;20074;-79
2021/10/05 01:49:00;;;;;;;1.52;0.90;;;;;;;11.71;nan;100287.63;5078130;28;20096;-78
2021/10/05 01:51:26;;;;;;;1.42;0.90;;;;;;;11.64;nan;100290.94;5070400;28;20044;-78
2021/10/05 01:53:51;;;;;;;2.50;1.00;;;;;;;11.58;nan;100291.56;5070427;28;20040;-79
2021/10/05 01:56:16;;;;;;;2.83;0.90;;;;;;;11.60;nan;100279.00;5052553;28;20512;-79
2021/10/05 01:58:43;;;;;;;1.20;0.90;;;;;;;11.54;nan;100277.03;5053755;28;20424;-79
2021/10/05 02:01:09;;;;;;;1.98;1.23;;;;;;;11.61;nan;100270.09;5070393;28;20040;-78
2021/10/05 02:03:34;;;;;;;2.30;1.10;;;;;;;11.56;nan;100274.19;5070631;28;20046;-78
2021/10/05 02:06:00;;;;;;;2.78;1.20;;;;;;;11.55;nan;100264.59;5052247;28;20029;-79
2021/10/05 02:08:26;;;;;;;1.45;1.10;;;;;;;11.61;nan;100266.59;5052754;28;20040;-78
2021/10/05 02:10:51;;;;;;;1.52;1.25;;;;;;;11.64;nan;100259.16;5071586;28;20032;-79
2021/10/05 02:13:16;;;;;;;2.10;1.30;;;;;;;11.68;nan;100260.47;5053712;28;20067;-79
2021/10/05 02:15:42;;;;;;;2.30;1.80;;;;;;;11.69;nan;100254.19;5057624;28;20071;-79
2021/10/05 02:18:07;;;;;;;2.70;2.10;;;;;;;11.72;nan;100253.00;5080734;28;20036;-79
2021/10/05 02:20:33;;;;;;;2.72;2.03;;;;;;;11.73;nan;100245.88;5059636;28;20497;-79
2021/10/05 02:22:58;;;;;;;3.03;1.83;;;;;;;11.67;nan;100242.09;5077067;28;20070;-79
2021/10/05 02:25:25;;;;;;;2.10;1.90;;;;;;;11.67;nan;100239.44;5058445;28;20059;-79
2021/10/05 02:27:51;;;;;;;2.88;2.00;;;;;;;11.68;nan;100241.94;5077770;28;20056;-78
2021/10/05 02:30:17;;;;;;;4.40;2.53;;;;;;;11.65;nan;100236.94;5077056;28;20037;-80
2021/10/05 02:32:43;;;;;;;3.55;2.20;;;;;;;11.67;nan;100236.78;5077551;28;20036;-79
2021/10/05 02:35:10;;;;;;;3.05;2.20;;;;;;;11.69;nan;100232.16;5077042;28;20036;-80
2021/10/05 02:37:35;;;;;;;3.13;2.50;;;;;;;11.71;nan;100242.59;5064347;28;20047;-79
2021/10/05 02:40:04;;;;;;;3.00;2.60;;;;;;;11.77;nan;100242.75;5077522;28;20397;-79
2021/10/05 02:42:30;;;;;;;3.85;2.70;;;;;;;11.79;nan;100242.59;5076538;28;20060;-79
2021/10/05 02:44:55;;;;;;;3.50;2.80;;;;;;;11.81;nan;100232.66;5076884;28;20072;-80
2021/10/05 02:47:21;;;;;;;2.90;2.50;;;;;;;11.77;nan;100239.28;5077318;28;20036;-80
2021/10/05 02:49:47;;;;;;;2.40;2.03;;;;;;;11.74;nan;100221.06;5077244;28;20028;-79
2021/10/05 02:52:14;;;;;;;2.63;1.75;;;;;;;11.69;nan;100213.63;5077671;28;20040;-80
2021/10/05 02:54:41;;;;;;;2.53;1.80;;;;;;;11.68;nan;100217.28;5059350;28;20025;-78
2021/10/05 02:57:07;;;;;;;3.78;1.85;;;;;;;11.66;nan;100219.25;5063864;28;20404;-80
2021/10/05 02:59:33;;;;;;;2.42;1.77;;;;;;;11.66;nan;100217.44;5080962;28;20036;-80
2021/10/05 03:01:59;;;;;;;1.92;1.33;;;;;;;11.65;nan;100217.59;5059304;28;20081;-79
2021/10/05 03:04:25;;;;;;;2.60;1.70;;;;;;;11.71;nan;100208.16;5082897;28;20036;-79
2021/10/05 03:06:50;;;;;;;2.42;1.80;;;;;;;11.67;nan;100205.84;5078808;28;20062;-80
2021/10/05 03:09:16;;;;;;;2.50;1.80;;;;;;;11.68;nan;100209.34;5077642;28;20055;-80
2021/10/05 03:11:41;;;;;;;2.40;1.90;;;;;;;11.56;nan;100197.41;5078273;28;20106;-80
2021/10/05 03:14:06;;;;;;;5.60;1.80;;;;;;;11.55;nan;100196.56;5058746;28;20040;-80
2021/10/05 03:16:33;;;;;;;2.10;1.52;;;;;;;11.60;nan;100196.09;5059797;28;20036;-80
2021/10/05 03:18:58;;;;;;;1.85;1.50;;;;;;;11.57;nan;100197.25;5060681;28;20029;-78
2021/10/05 03:21:24;;;;;;;2.53;1.70;;;;;;;11.51;nan;100192.59;5062148;28;20448;-79
2021/10/05 03:23:49;;;;;;;1.90;1.45;;;;;;;11.59;nan;100182.03;5079838;28;20032;-79
2021/10/05 03:26:15;;;;;;;2.10;1.80;;;;;;;11.64;nan;100186.81;5059669;28;20072;-79
2021/10/05 03:28:41;;;;;;;2.50;2.10;;;;;;;11.60;nan;100183.66;5073635;28;20519;-80
2021/10/05 03:31:06;;;;;;;2.33;1.67;;;;;;;11.52;nan;100188.97;5056177;28;20036;-80
2021/10/05 03:33:32;;;;;;;2.33;1.73;;;;;;;11.59;nan;100179.38;5075028;28;20036;-80
2021/10/05 03:35:57;;;;;;;2.38;1.67;;;;;;;11.64;nan;100174.41;5073463;28;20040;-80
2021/10/05 03:38:23;;;;;;;2.00;1.63;;;;;;;11.57;nan;100189.31;5073249;28;20055;-80
2021/10/05 03:40:49;;;;;;;2.10;1.58;;;;;;;11.51;nan;100192.59;5073442;28;20709;-79
2021/10/05 03:43:15;;;;;;;1.55;1.20;;;;;;;11.44;nan;100178.38;5075243;28;20508;-80
2021/10/05 03:45:40;;;;;;;1.63;1.20;;;;;;;11.39;nan;100173.59;5073529;28;20028;-79
2021/10/05 03:48:06;;;;;;;3.47;1.10;;;;;;;11.33;nan;100181.38;5072840;28;20032;-79
2021/10/05 03:50:31;;;;;;;2.25;1.20;;;;;;;11.35;nan;100171.44;5055302;28;20028;-80
2021/10/05 03:52:56;;;;;;;1.83;1.27;;;;;;;11.34;nan;100167.94;5060964;28;20033;-80
2021/10/05 03:55:22;;;;;;;2.13;1.20;;;;;;;11.38;nan;100168.47;5055332;28;20401;-80
2021/10/05 03:57:47;;;;;;;1.40;0.98;;;;;;;11.39;nan;100165.66;5073545;28;20037;-79
2021/10/05 04:00:13;;;;;;;1.30;1.02;;;;;;;11.43;nan;100160.84;5073153;28;20025;-79
2021/10/05 04:02:39;;;;;;;1.55;1.27;;;;;;;11.44;nan;100162.47;5054653;28;20035;-80
2021/10/05 04:05:04;;;;;;;1.17;1.00;;;;;;;11.44;nan;100165.97;5054851;28;20123;-80
2021/10/05 04:07:30;;;;;;;1.83;1.30;;;;;;;11.51;nan;100158.19;5058915;28;20055;-80
2021/10/05 04:09:55;;;;;;;1.58;1.25;;;;;;;11.53;nan;100156.19;5074407;28;20576;-80
2021/10/05 04:12:20;;;;;;;1.63;1.40;;;;;;;11.53;nan;100152.72;5072899;28;20106;-79
2021/10/05 04:14:46;;;;;;;1.50;1.20;;;;;;;11.47;nan;100157.69;5078010;28;20043;-79
2021/10/05 04:17:11;;;;;;;1.20;1.02;;;;;;;11.48;nan;100151.41;5055205;28;20056;-79
2021/10/05 04:19:37;;;;;;;2.40;0.98;;;;;;;11.45;nan;100153.56;5073058;28;21163;-80
2021/10/05 04:22:02;;;;;;;2.10;1.30;;;;;;;11.47;nan;100157.69;5073349;28;20036;-79
2021/10/05 04:24:28;;;;;;;1.23;0.90;;;;;;;11.45;nan;100156.22;5073339;28;20037;-79
2021/10/05 04:26:53;;;;;;;1.92;1.00;;;;;;;11.44;nan;100157.19;5073933;28;20379;-80
2021/10/05 04:29:19;;;;;;;1.35;1.00;;;;;;;11.42;nan;100140.66;5073266;28;20033;-80
2021/10/05 04:31:44;;;;;;;1.20;0.82;;;;;;;11.43;nan;100139.66;5058495;28;20141;-79
2021/10/05 04:34:09;;;;;;;1.50;0.93;;;;;;;11.44;nan;100143.94;5073275;28;20033;-79
2021/10/05 04:36:35;;;;;;;1.58;1.10;;;;;;;11.50;nan;100156.53;5074264;28;20071;-79
2021/10/05 04:39:00;;;;;;;1.70;1.20;;;;;;;11.49;nan;100144.31;5083221;28;20033;-79
2021/10/05 04:41:25;;;;;;;2.03;1.00;;;;;;;11.48;nan;100146.09;5073651;28;20051;-79
2021/10/05 04:43:51;;;;;;;1.27;0.95;;;;;;;11.45;nan;100145.63;5073720;28;20092;-78
2021/10/05 04:46:16;;;;;;;1.60;1.27;;;;;;;11.44;nan;100142.16;5072849;28;20043;-78
2021/10/05 04:48:41;;;;;;;1.30;1.00;;;;;;;11.44;nan;100136.00;5074529;28;20043;-79
2021/10/05 04:51:07;;;;;;;1.98;1.20;;;;;;;11.42;nan;100133.53;5057846;28;20086;-78
2021/10/05 04:53:32;;;;;;;2.13;1.02;;;;;;;11.41;nan;100129.22;5056311;28;20048;-78
2021/10/05 04:55:57;;;;;;;1.83;1.10;;;;;;;11.40;nan;100130.25;5072642;28;20106;-78
2021/10/05 04:58:23;;;;;;;2.35;1.10;;;;;;;11.42;nan;100132.72;5054335;28;20059;-78
2021/10/05 05:00:50;;;;;;;1.45;1.00;;;;;;;11.45;nan;100138.50;5071287;28;20029;-78
2021/10/05 05:03:15;;;;;;;1.65;0.93;;;;;;;11.50;nan;100134.53;5067115;28;20037;-78
2021/10/05 05:05:41;;;;;;;1.65;1.05;;;;;;;11.49;nan;100133.72;5072540;28;20029;-80
2021/10/05 05:08:06;;;;;;;1.85;1.20;;;;;;;11.51;nan;100129.06;5075316;28;20461;-78
2021/10/05 05:10:31;;;;;;;1.75;1.10;;;;;;;11.53;nan;100140.31;5083683;28;20042;-78
2021/10/05 05:12:57;;;;;;;1.10;0.90;;;;;;;11.51;nan;100138.81;5053854;28;20055;-78
2021/10/05 05:15:22;;;;;;;1.45;1.10;;;;;;;11.53;nan;100127.06;5075217;28;20028;-78
2021/10/05 05:17:48;;;;;;;1.50;1.10;;;;;;;11.53;nan;100119.13;5051932;28;20128;-81
2021/10/05 05:20:14;;;;;;;1.58;1.00;;;;;;;11.55;nan;100111.84;5054182;28;20033;-80
2021/10/05 05:22:39;;;;;;;1.60;1.10;;;;;;;11.54;nan;100119.97;5057060;28;20033;-77
2021/10/05 05:25:06;;;;;;;1.20;0.95;;;;;;;11.55;nan;100130.38;5070719;28;20051;-80
2021/10/05 05:27:31;;;;;;;1.65;1.10;;;;;;;11.51;nan;100131.69;5052924;28;20025;-80
2021/10/05 05:29:57;;;;;;;2.25;1.70;;;;;;;11.50;nan;100130.06;5068771;28;20039;-77
2021/10/05 05:32:22;;;;;;;2.55;1.40;;;;;;;11.50;nan;100135.34;5078335;28;20044;-77
2021/10/05 05:34:48;;;;;;;3.65;1.50;;;;;;;11.42;nan;100114.19;5057094;28;20401;-78
2021/10/05 05:37:13;;;;;;;2.58;1.50;;;;;;;11.42;nan;100115.00;5070053;28;20044;-77
2021/10/05 05:39:42;;;;;;;2.17;1.52;;;;;;;11.45;nan;100124.44;5070333;28;20044;-77
2021/10/05 05:42:09;;;;;;;2.30;1.40;;;;;;;11.50;nan;100127.41;5069308;28;20048;-77
2021/10/05 05:44:35;;;;;;;2.95;1.45;;;;;;;11.49;nan;100117.81;5077526;28;20073;-77
2021/10/05 05:47:00;;;;;;;4.47;1.75;;;;;;;11.51;nan;100110.50;5051416;28;20493;-77
2021/10/05 05:49:25;;;;;;;1.92;1.40;;;;;;;11.55;nan;100101.25;5072922;28;20048;-77
2021/10/05 05:51:51;;;;;;;3.35;1.27;;;;;;;11.54;nan;100102.25;5052118;28;20028;-77
2021/10/05 05:54:16;;;;;;;2.17;1.23;;;;;;;11.47;nan;100091.50;5052295;28;20082;-77
2021/10/05 05:56:42;;;;;;;2.03;1.30;;;;;;;11.39;nan;100082.75;5069318;28;20542;-77
2021/10/05 05:59:07;;;;;;;1.88;1.20;;;;;;;11.36;nan;100081.25;5069904;28;20047;-77
2021/10/05 06:01:33;;;;;;;;;;;;;;;11.45;nan;100074.13;5054782;28;20485;-78
2021/10/05 06:04:00;;;;;;;1.50;1.10;;;;;;;11.46;nan;100070.47;5058146;28;19916;-78
2021/10/05 06:06:25;;;;;;;1.80;1.20;;;;;;;11.51;nan;100076.09;5056936;28;20092;-78
2021/10/05 06:08:51;;;;;;;2.13;1.20;;;;;;;11.56;nan;100070.28;5085675;28;20063;-78
2021/10/05 06:11:18;;;;;;;1.67;1.17;;;;;;;11.63;nan;100071.28;5054708;28;20048;-78
2021/10/05 06:13:46;;;;;;;2.42;1.40;;;;;;;11.67;nan;100062.00;5080509;28;20032;-78
2021/10/05 06:16:11;;;;;;;1.75;1.20;;;;;;;11.65;nan;100059.50;5076386;28;20040;-78
2021/10/05 06:18:36;;;;;;;1.30;1.05;;;;;;;11.66;nan;100058.53;5054046;28;20120;-79
2021/10/05 06:21:02;;;;;;;1.35;1.05;;;;;;;11.64;nan;100057.88;5053868;28;20039;-78
2021/10/05 06:23:27;;;;;;;1.70;1.30;;;;;;;11.66;nan;100055.06;5054174;28;20036;-78
2021/10/05 06:25:54;;;;;;;3.13;1.60;;;;;;;11.68;nan;100051.25;5072068;28;20032;-78
2021/10/05 06:28:21;;;;;;;4.47;2.30;;;;;;;11.73;nan;100050.72;5070992;28;20048;-78
2021/10/05 06:30:46;;;;;;;2.70;1.52;;;;;;;11.78;nan;100045.75;5071891;28;20032;-78
2021/10/05 06:33:11;;;;;;;3.47;1.70;;;;;;;11.80;nan;100046.41;5054029;28;20173;-78
2021/10/05 06:35:37;;;;;;;3.00;1.50;;;;;;;11.81;nan;100045.41;5079955;28;20622;-78
2021/10/05 06:38:02;;;;;;;3.08;1.58;;;;;;;11.84;nan;100049.53;5053156;28;20570;-78
2021/10/05 06:40:32;;;;;;;1.90;1.30;;;;;;;11.88;nan;100048.22;5053417;28;20056;-78
2021/10/05 06:42:58;;;;;;;1.88;1.20;;;;;;;11.88;nan;100053.53;5072588;28;20335;-78
2021/10/05 06:45:24;;;;;;;2.17;1.30;;;;;;;11.99;nan;100045.19;5072202;28;20037;-79
2021/10/05 06:47:50;;;;;;;2.55;1.70;;;;;;;11.99;nan;100045.19;5072143;28;20497;-78
2021/10/05 06:50:16;;;;;;;2.38;1.30;;;;;;;11.99;nan;100044.34;5072604;28;20033;-79
2021/10/05 06:52:42;;;;;;;1.90;1.60;;;;;;;11.95;nan;100035.13;5054610;28;20063;-79
2021/10/05 06:55:08;;;;;;;2.22;1.70;;;;;;;12.01;nan;100032.59;5072802;28;20037;-78
2021/10/05 06:57:33;;;;;;;3.25;1.73;;;;;;;12.04;nan;100028.78;5073437;28;20060;-79
2021/10/05 06:59:59;;;;;;;2.38;1.77;;;;;;;12.11;nan;100032.38;5057761;28;20036;-79
2021/10/05 07:02:24;;;;;;;2.42;1.90;;;;;;;12.11;nan;100038.50;5061528;28;20162;-79
2021/10/05 07:04:50;;;;;;;3.30;2.40;;;;;;;12.10;nan;100036.03;5081490;28;20029;-79
2021/10/05 07:07:15;;;;;;;2.70;2.17;;;;;;;12.13;nan;100037.50;5062493;28;20036;-78
2021/10/05 07:09:41;;;;;;;2.10;1.65;;;;;;;12.21;nan;100042.78;5077006;28;20067;-79
2021/10/05 07:12:07;;;;;;;2.60;1.95;;;;;;;12.26;nan;100043.06;5057305;28;20401;-79
2021/10/05 07:14:32;;;;;;;3.00;2.30;;;;;;;12.31;nan;100041.53;5079012;28;20497;-79
2021/10/05 07:16:58;;;;;;;3.03;2.58;;;;;;;12.38;nan;100041.66;5075091;28;20143;-78
2021/10/05 07:19:23;;;;;;;3.30;2.60;;;;;;;12.43;nan;100046.44;5074860;28;20383;-79
2021/10/05 07:21:48;;;;;;;4.03;2.53;;;;;;;12.48;nan;100052.03;5075655;28;20484;-79
2021/10/05 07:24:14;;;;;;;3.88;2.72;;;;;;;12.58;nan;100046.50;5074801;28;20028;-79
2021/10/05 07:26:39;;;;;;;2.35;2.15;;;;;;;12.72;nan;100045.72;5074539;28;20040;-78
2021/10/05 07:29:04;;;;;;;2.78;2.17;;;;;;;12.80;nan;100044.84;5057359;28;20040;-79
2021/10/05 07:31:34;;;;;;;2.97;2.28;;;;;;;12.78;nan;100052.19;5056628;28;20052;-79
2021/10/05 07:34:00;;;;;;;3.83;2.80;;;;;;;12.77;nan;100043.38;5057789;28;20047;-79
2021/10/05 07:36:25;;;;;;;4.53;2.30;;;;;;;12.87;nan;100043.97;5055606;28;20032;-79
2021/10/05 07:38:51;;;;;;;3.95;2.70;;;;;;;12.91;nan;100041.78;5076076;28;20111;-79
2021/10/05 07:41:16;;;;;;;2.92;1.90;;;;;;;12.98;nan;100041.88;5074650;28;20025;-78
2021/10/05 07:43:41;;;;;;;3.83;2.70;;;;;;;13.10;nan;100043.09;5083630;28;20040;-79
2021/10/05 07:46:07;;;;;;;3.83;2.70;;;;;;;13.10;nan;100040.44;5074250;28;20051;-79
2021/10/05 07:48:33;;;;;;;4.07;2.70;;;;;;;13.18;nan;100027.13;5075356;28;20551;-79
2021/10/05 07:50:58;;;;;;;3.88;2.60;;;;;;;13.17;nan;100039.53;5078362;28;20027;-79
2021/10/05 07:53:23;;;;;;;3.50;2.65;;;;;;;13.20;nan;100043.66;5057828;28;20063;-79
2021/10/05 07:55:49;;;;;;;5.40;3.10;;;;;;;13.32;nan;100038.75;5082683;28;20124;-79
2021/10/05 07:58:14;;;;;;;4.45;2.38;;;;;;;13.31;nan;100037.13;5073568;28;20036;-79
2021/10/05 08:00:40;;;;;;;2.67;2.00;;;;;;;13.38;nan;100030.91;5074205;28;20437;-79
2021/10/05 08:03:05;;;;;;;7.22;2.72;;;;;;;13.41;nan;100032.38;5074470;28;20573;-78
2021/10/05 08:05:31;;;;;;;4.28;2.70;;;;;;;13.48;nan;100027.16;5063904;28;20043;-79
2021/10/05 08:08:05;;;;;;;4.47;2.90;;;;;;;13.66;nan;100035.59;5074345;28;20028;-79
2021/10/05 08:10:42;;;;;;;4.60;3.05;;;;;;;13.80;nan;100034.75;5055635;28;20505;-79
2021/10/05 08:13:08;;;;;;;5.18;3.10;;;;;;;13.90;nan;100034.47;5060765;28;20032;-79
2021/10/05 08:15:34;;;;;;;4.22;2.80;;;;;;;14.00;nan;100026.19;5075845;28;20029;-79
2021/10/05 08:17:59;;;;;;;3.20;2.80;;;;;;;14.00;nan;100021.69;5082092;28;20032;-79
2021/10/05 08:20:26;;;;;;;4.57;3.15;;;;;;;13.95;nan;100025.94;5073387;28;20109;-79
2021/10/05 08:22:53;;;;;;;3.50;2.55;;;;;;;14.15;nan;100026.97;5058175;28;20036;-79
2021/10/05 08:25:18;;;;;;;3.33;2.20;;;;;;;14.30;nan;100023.44;5056438;28;20593;-79
2021/10/05 08:27:45;;;;;;;4.03;2.95;;;;;;;14.30;nan;100029.63;5055522;28;20072;-79
2021/10/05 08:30:15;;;;;;;4.60;2.90;;;;;;;14.26;nan;100016.88;5055680;28;20063;-78
2021/10/05 08:32:41;;;;;;;4.03;2.60;;;;;;;14.10;nan;100021.41;5055685;28;20044;-79
2021/10/05 08:35:07;;;;;;;3.22;2.72;;;;;;;14.09;nan;100019.75;5073814;28;20033;-79
2021/10/05 08:37:32;;;;;;;6.18;3.30;;;;;;;14.02;nan;100024.19;5073261;28;20052;-79
2021/10/05 08:39:58;;;;;;;3.80;3.08;;;;;;;13.99;nan;100019.22;5064910;28;20447;-79
2021/10/05 08:42:24;;;;;;;3.47;2.53;;;;;;;13.83;nan;100016.78;5072622;28;20056;-79
2021/10/05 08:44:50;;;;;;;5.38;3.20;;;;;;;13.93;nan;100020.78;5082302;28;20025;-79
2021/10/05 08:47:17;;;;;;;4.03;2.65;;;;;;;13.80;nan;100018.00;5055107;28;20541;-79
2021/10/05 08:49:45;;;;;;;4.30;3.40;;;;;;;13.90;nan;100017.69;5074125;28;20089;-79
2021/10/05 08:52:11;;;;;;;4.28;3.20;;;;;;;13.95;nan;100016.13;5072983;28;20106;-79
2021/10/05 08:54:41;;;;;;;4.82;3.20;;;;;;;13.89;nan;100011.53;5073269;28;20098;-80
2021/10/05 08:57:06;;;;;;;4.57;3.42;;;;;;;13.85;nan;100006.78;5056218;28;20056;-79
2021/10/05 08:59:32;;;;;;;3.90;3.10;;;;;;;13.80;nan;99997.56;5073599;28;20055;-79
2021/10/05 09:01:57;;;;;;;4.65;3.30;;;;;;;13.80;nan;99992.22;5073519;28;20031;-80
2021/10/05 09:04:23;;;;;;;3.45;2.95;;;;;;;13.84;nan;99992.69;5055537;28;20028;-79
2021/10/05 09:06:51;;;;;;;3.53;2.85;;;;;;;13.80;nan;99997.56;5081499;28;20089;-79
2021/10/05 09:09:18;;;;;;;4.47;2.70;;;;;;;13.80;nan;100005.53;5055470;28;20056;-79
2021/10/05 09:11:53;;;;;;;3.28;2.90;;;;;;;13.84;nan;100005.97;5073100;28;20039;-80
2021/10/05 09:14:20;;;;;;;4.70;3.47;;;;;;;13.80;nan;100012.69;5073229;28;20048;-79
2021/10/05 09:16:45;;;;;;;4.13;3.53;;;;;;;13.82;nan;99997.34;5073474;28;20067;-79
2021/10/05 09:19:14;;;;;;;5.38;3.78;;;;;;;13.83;nan;99995.53;5073029;28;20497;-79
2021/10/05 09:21:42;;;;;;;6.30;4.22;;;;;;;13.99;nan;99995.28;5073334;28;20037;-79
2021/10/05 09:24:13;;;;;;;4.78;3.67;;;;;;;13.97;nan;99994.69;5072281;28;20691;-79
2021/10/05 09:26:50;;;;;;;6.22;4.40;;;;;;;13.94;nan;99993.22;5072253;28;20024;-80
2021/10/05 09:29:37;;;;;;;5.32;4.50;;;;;;;13.89;nan;99986.81;5056167;28;20029;-79
2021/10/05 09:32:14;;;;;;;7.63;5.22;;;;;;;13.89;nan;99966.34;5063164;28;20028;-79
2021/10/05 09:34:50;;;;;;;7.35;5.20;;;;;;;13.93;nan;99958.84;5063820;28;20400;-79
2021/10/05 09:37:25;;;;;;;5.97;4.55;;;;;;;13.97;nan;99952.16;5072943;28;20036;-79
2021/10/05 09:40:01;;;;;;;8.13;5.43;;;;;;;13.89;nan;99946.94;5073170;28;20469;-79
2021/10/05 09:42:29;;;;;;;7.20;4.97;;;;;;;13.96;nan;99951.31;5072670;28;20044;-80
2021/10/05 09:44:56;;;;;;;7.90;5.13;;;;;;;14.15;nan;99943.72;5056420;28;20040;-79
2021/10/05 09:47:33;;;;;;;7.00;5.45;;;;;;;14.27;nan;99950.19;5059932;28;20404;-78
2021/10/05 09:49:59;;;;;;;6.68;5.00;;;;;;;14.30;nan;99947.19;5076065;28;20387;-80
2021/10/05 09:52:36;;;;;;;5.35;4.32;;;;;;;14.43;nan;99938.47;5077310;28;20119;-79
2021/10/05 09:55:02;;;;;;;4.93;3.85;;;;;;;14.60;nan;99939.88;5054643;28;20607;-80
2021/10/05 09:57:29;;;;;;;4.63;3.88;;;;;;;14.83;nan;99936.19;5072828;28;20115;-79
2021/10/05 09:59:54;;;;;;;6.25;4.43;;;;;;;15.00;nan;99942.84;5057425;28;20040;-79
2021/10/05 10:02:20;;;;;;;5.45;4.47;;;;;;;15.13;nan;99939.41;5078025;28;20036;-79
2021/10/05 10:04:45;;;;;;;6.85;5.22;;;;;;;15.30;nan;99937.25;5062518;28;20048;-79
2021/10/05 10:07:11;;;;;;;7.07;5.38;;;;;;;15.44;nan;99935.50;5072426;28;20413;-80
2021/10/05 10:09:36;;;;;;;6.55;5.07;;;;;;;15.60;nan;99934.34;5072737;28;20071;-79
2021/10/05 10:12:02;;;;;;;7.53;6.00;;;;;;;15.60;nan;99940.47;5062931;28;20127;-80
2021/10/05 10:14:29;;;;;;;8.23;6.55;;;;;;;15.56;nan;99938.41;5075329;28;20028;-79
2021/10/05 10:16:54;;;;;;;8.38;6.60;;;;;;;15.19;nan;99941.31;5055965;28;20049;-79
2021/10/05 10:19:29;;;;;;;7.25;6.32;;;;;;;15.48;nan;99950.88;5081794;28;20044;-79
2021/10/05 10:22:08;;;;;;;8.10;6.55;;;;;;;15.46;nan;99952.91;5054333;28;20036;-79
2021/10/05 10:24:52;;;;;;;8.38;6.53;;;;;;;15.32;nan;99947.72;5071791;28;20032;-79
2021/10/05 10:27:18;;;;;;;8.63;6.65;;;;;;;15.26;nan;99954.69;5072245;28;20025;-79
2021/10/05 10:29:45;;;;;;;7.93;6.28;;;;;;;15.14;nan;99949.06;5054650;28;20032;-79
2021/10/05 10:32:24;;;;;;;7.55;5.97;;;;;;;15.21;nan;99957.09;5053822;28;20074;-80
2021/10/05 10:35:05;;;;;;;6.50;5.10;;;;;;;15.10;nan;99962.97;5072945;28;20068;-78
2021/10/05 10:37:51;;;;;;;7.70;5.70;;;;;;;14.90;nan;99960.16;5074050;28;20033;-79
2021/10/05 10:40:18;;;;;;;6.63;4.70;;;;;;;15.01;nan;99955.13;5076452;28;20078;-79
2021/10/05 10:42:44;;;;;;;5.65;4.57;;;;;;;15.06;nan;99952.72;5089181;28;20027;-79
2021/10/05 10:45:20;;;;;;;6.22;4.80;;;;;;;15.47;nan;99954.56;5076665;28;20390;-79
2021/10/05 10:47:49;;;;;;;4.97;4.28;;;;;;;15.48;nan;99942.88;5060242;28;20028;-78
2021/10/05 10:50:16;;;;;;;6.97;4.75;;;;;;;15.72;nan;99948.75;5069580;28;20032;-80
2021/10/05 10:52:45;;;;;;;6.47;4.70;;;;;;;15.91;nan;99948.00;5059220;28;20078;-79
2021/10/05 10:55:14;;;;;;;5.68;4.70;;;;;;;16.02;nan;99953.78;5076785;28;20043;-79
2021/10/05 10:57:54;;;;;;;5.18;4.53;;;;;;;15.97;nan;99956.22;5057579;28;20568;-79
2021/10/05 11:00:25;;;;;;;4.65;4.05;;;;;;;16.00;nan;99969.97;5075604;28;20071;-79
2021/10/05 11:02:54;;;;;;;5.22;4.03;;;;;;;15.86;nan;99963.78;5058069;28;20016;-79
2021/10/05 11:05:22;;;;;;;4.70;3.72;;;;;;;15.93;nan;99967.28;5073832;28;20036;-78
2021/10/05 11:07:52;;;;;;;4.65;3.97;;;;;;;15.84;nan;99957.00;5078988;28;20037;-80
2021/10/05 11:10:27;;;;;;;4.22;3.63;;;;;;;15.81;nan;99954.75;5062491;28;20082;-78
2021/10/05 11:12:58;;;;;;;4.55;3.88;;;;;;;15.76;nan;99959.88;5076103;28;20075;-79
2021/10/05 11:15:36;;;;;;;4.60;3.97;;;;;;;15.61;nan;99968.78;5076564;28;20036;-79
2021/10/05 11:18:25;;;;;;;6.00;4.35;;;;;;;15.35;nan;99958.81;5060174;28;20052;-79
2021/10/05 11:20:56;;;;;;;4.82;3.97;;;;;;;15.35;nan;99955.31;5056005;28;21411;-78
2021/10/05 11:23:23;;;;;;;4.43;3.80;;;;;;;15.59;nan;99954.00;5058807;28;20090;-78
2021/10/05 11:25:52;;;;;;;5.10;4.03;;;;;;;15.66;nan;99945.03;5075170;28;20396;-79
2021/10/05 11:28:21;;;;;;;4.25;3.53;;;;;;;15.83;nan;99945.53;5073821;28;20444;-78
2021/10/05 11:30:53;;;;;;;5.90;3.20;;;;;;;16.01;nan;99949.47;5073613;28;20718;-78
2021/10/05 11:33:25;;;;;;;3.95;2.70;;;;;;;16.32;nan;99933.72;5074915;28;20501;-78
2021/10/05 11:35:51;;;;;;;3.92;2.88;;;;;;;16.63;nan;99934.94;5074765;28;20041;-79
2021/10/05 11:38:17;;;;;;;2.85;2.17;;;;;;;16.71;nan;99925.94;5075007;28;20029;-78
2021/10/05 11:40:51;;;;;;;2.80;2.30;;;;;;;16.69;nan;99920.78;5075433;28;20146;-78
2021/10/05 11:43:17;;;;;;;2.40;1.90;;;;;;;16.63;nan;99905.59;5075303;28;20033;-79